EZY2050 EGPH-EGKK
Flight info
| Callsign | EZY2050 |
|---|---|
| Flight time | N/A |
| Altitude | 37000 |
| Route | GOSAM P600 FENIK L612 NAVSO DCT ADZOP DCT EGTOC DCT KEPAD L151 DISIT |
| Aircraft | A320/M-SDE3FGHIRWY/LB1 |
Departure
| Time | 2026-05-01 11:18 |
|---|---|
| Airport | Edinburgh Airport (EGPH) |
Arrival
| Time | N/A |
|---|---|
| Airport | London Gatwick Airport (EGKK) |
| Time | Latitude | Longitude | Altitude | Speed | Heading |
|---|---|---|---|---|---|
| 2026-05-01 10:53 | 55.94919 | -3.36428 | 114 ft | 0 kts | 148° |
| 2026-05-01 11:12 | 55.94928 | -3.36438 | 113 ft | 4 kts | 147° |
| 2026-05-01 11:12 | 55.94949 | -3.36465 | 112 ft | 4 kts | 137° |
| 2026-05-01 11:13 | 55.94966 | -3.36500 | 113 ft | 4 kts | 110° |
| 2026-05-01 11:13 | 55.94968 | -3.36534 | 112 ft | 1 kts | 59° |
| 2026-05-01 11:13 | 55.94967 | -3.36534 | 112 ft | 0 kts | 59° |
| 2026-05-01 11:15 | 55.94976 | -3.36509 | 112 ft | 9 kts | 59° |
| 2026-05-01 11:15 | 55.95016 | -3.36400 | 113 ft | 10 kts | 45° |
| 2026-05-01 11:15 | 55.95073 | -3.36401 | 114 ft | 8 kts | 3° |
| 2026-05-01 11:15 | 55.95128 | -3.36301 | 114 ft | 17 kts | 60° |
| 2026-05-01 11:16 | 55.95193 | -3.36107 | 116 ft | 19 kts | 59° |
| 2026-05-01 11:16 | 55.95266 | -3.35889 | 112 ft | 21 kts | 58° |
| 2026-05-01 11:16 | 55.95347 | -3.35655 | 116 ft | 23 kts | 59° |
| 2026-05-01 11:16 | 55.95418 | -3.35442 | 115 ft | 11 kts | 59° |
| 2026-05-01 11:17 | 55.95487 | -3.35428 | 116 ft | 15 kts | 329° |
| 2026-05-01 11:17 | 55.95568 | -3.35537 | 113 ft | 12 kts | 296° |
| 2026-05-01 11:17 | 55.95512 | -3.35739 | 113 ft | 40 kts | 239° |
| 2026-05-01 11:17 | 55.95226 | -3.36582 | 113 ft | 114 kts | 239° |
| 2026-05-01 11:18 | 55.94721 | -3.38079 | 218 ft | 156 kts | 239° |
| 2026-05-01 11:18 | 55.94158 | -3.39746 | 870 ft | 159 kts | 237° |
| 2026-05-01 11:18 | 55.93566 | -3.41448 | 1600 ft | 165 kts | 236° |
| 2026-05-01 11:18 | 55.92918 | -3.43304 | 2029 ft | 187 kts | 236° |
| 2026-05-01 11:19 | 55.92196 | -3.45377 | 2389 ft | 212 kts | 236° |
| 2026-05-01 11:19 | 55.91373 | -3.47735 | 2897 ft | 236 kts | 236° |
| 2026-05-01 11:19 | 55.90546 | -3.50402 | 3632 ft | 254 kts | 248° |
| 2026-05-01 11:19 | 55.90170 | -3.53527 | 4692 ft | 258 kts | 257° |
| 2026-05-01 11:20 | 55.89860 | -3.56692 | 5796 ft | 260 kts | 257° |
| 2026-05-01 11:20 | 55.89550 | -3.59847 | 6809 ft | 263 kts | 257° |
| 2026-05-01 11:20 | 55.89229 | -3.63096 | 7770 ft | 267 kts | 256° |
| 2026-05-01 11:20 | 55.88899 | -3.66387 | 8694 ft | 271 kts | 256° |
| 2026-05-01 11:21 | 55.88564 | -3.69695 | 9615 ft | 275 kts | 256° |
| 2026-05-01 11:21 | 55.88036 | -3.72983 | 10422 ft | 279 kts | 241° |
| 2026-05-01 11:21 | 55.86794 | -3.75754 | 10705 ft | 297 kts | 216° |
| 2026-05-01 11:21 | 55.84858 | -3.77311 | 10958 ft | 319 kts | 190° |
| 2026-05-01 11:22 | 55.82599 | -3.77579 | 11379 ft | 334 kts | 182° |
| 2026-05-01 11:22 | 55.80252 | -3.77712 | 12107 ft | 339 kts | 182° |
| 2026-05-01 11:22 | 55.77873 | -3.77846 | 12896 ft | 343 kts | 182° |
| 2026-05-01 11:22 | 55.75498 | -3.77988 | 13659 ft | 347 kts | 183° |
| 2026-05-01 11:23 | 55.73069 | -3.78143 | 14366 ft | 350 kts | 183° |
| 2026-05-01 11:23 | 55.70618 | -3.78301 | 15065 ft | 352 kts | 182° |
| 2026-05-01 11:23 | 55.68150 | -3.78455 | 15724 ft | 356 kts | 182° |
| 2026-05-01 11:23 | 55.65654 | -3.78609 | 16374 ft | 360 kts | 183° |
| 2026-05-01 11:24 | 55.63135 | -3.78766 | 17084 ft | 364 kts | 183° |